Time;durP1;ratioP1;P1;durP2;ratioP2;P2;SDS_P1;SDS_P2;PMS_P1;PMS_P2;Temp;Humidity;BMP_temperature;BMP_pressure;BME280_temperature;BME280_humidity;BME280_pressure;Samples;Min_cycle;Max_cycle;Signal;HPM_P1;HPM_P2
2022/05/17 00:01:12;;;;;;;19.43;11.57;;;;;;;16.68;100.00;101949.53;5028549;28;20192;-90
2022/05/17 00:03:37;;;;;;;15.67;9.93;;;;;;;16.88;100.00;101995.59;5044712;28;20664;-91
2022/05/17 00:06:05;;;;;;;21.27;9.93;;;;;;;16.99;100.00;101999.53;5025224;28;20215;-90
2022/05/17 00:08:30;;;;;;;16.13;10.80;;;;;;;16.81;100.00;102002.91;5033653;28;20216;-91
2022/05/17 00:10:56;;;;;;;17.73;10.60;;;;;;;16.43;100.00;101973.78;5031455;28;20527;-91
2022/05/17 00:13:21;;;;;;;14.77;10.17;;;;;;;16.66;100.00;101975.19;5031663;28;20593;-90
2022/05/17 00:15:49;;;;;;;17.83;10.10;;;;;;;16.77;100.00;102008.97;5030325;28;20540;-89
2022/05/17 00:18:16;;;;;;;21.53;12.40;;;;;;;16.75;100.00;102001.03;5031184;28;20191;-88
2022/05/17 00:20:43;;;;;;;12.97;9.47;;;;;;;16.20;100.00;101939.03;5029352;28;20454;-88
2022/05/17 00:23:11;;;;;;;17.40;10.10;;;;;;;16.45;100.00;102003.34;5031936;28;20496;-87
2022/05/17 00:25:36;;;;;;;14.70;9.50;;;;;;;16.51;100.00;101980.84;5029875;28;20442;-86
2022/05/17 00:28:02;;;;;;;14.70;9.63;;;;;;;16.65;100.00;101995.19;5029607;28;20462;-88
2022/05/17 00:30:28;;;;;;;19.50;9.23;;;;;;;16.24;100.00;101959.19;5032187;28;20200;-89
2022/05/17 00:32:54;;;;;;;17.50;10.37;;;;;;;16.67;100.00;102001.25;5030417;28;20950;-89
2022/05/17 00:35:19;;;;;;;16.67;9.40;;;;;;;16.16;100.00;101948.56;5026127;28;20183;-87
2022/05/17 00:37:44;;;;;;;14.70;9.13;;;;;;;16.35;100.00;101975.88;5030632;28;20636;-88
2022/05/17 00:40:11;;;;;;;15.03;9.03;;;;;;;16.27;100.00;101964.19;5028580;23;20229;-70
2022/05/17 00:42:37;;;;;;;16.10;9.13;;;;;;;16.60;100.00;101970.59;5008158;28;20623;-70
2022/05/17 00:45:04;;;;;;;13.93;8.03;;;;;;;16.36;100.00;101942.31;5008833;28;20456;-70
2022/05/17 00:47:37;;;;;;;16.27;9.03;;;;;;;16.80;100.00;101992.28;5003966;28;20792;-70
2022/05/17 00:50:30;;;;;;;24.13;10.03;;;;;;;16.83;100.00;101991.84;5004592;28;20503;-70
2022/05/17 00:53:04;;;;;;;15.70;9.30;;;;;;;16.53;100.00;101937.31;5020825;28;20470;-70
2022/05/17 00:56:07;;;;;;;21.60;11.00;;;;;;;16.65;100.00;101963.50;5005292;28;20956;-70
2022/05/17 00:58:46;;;;;;;15.80;9.33;;;;;;;15.76;100.00;101840.34;5005313;28;20509;-70
2022/05/17 01:01:15;;;;;;;15.60;9.70;;;;;;;16.70;100.00;101982.69;5006041;28;20966;-70
2022/05/17 01:03:49;;;;;;;14.80;9.97;;;;;;;16.72;100.00;101975.19;5006105;28;20447;-70
2022/05/17 01:06:16;;;;;;;16.20;10.37;;;;;;;16.10;100.00;101873.63;5006841;28;20466;-70
2022/05/17 01:08:42;;;;;;;18.40;10.10;;;;;;;16.23;100.00;101970.25;5006631;28;20523;-70
2022/05/17 01:11:07;;;;;;;13.27;9.63;;;;;;;16.42;100.00;101955.84;5004924;28;20551;-70
2022/05/17 01:16:18;;;;;;;14.70;10.20;;;;;;;16.54;100.00;101983.13;5005785;28;20266;-70
2022/05/17 01:18:43;;;;;;;19.17;9.40;;;;;;;16.43;100.00;101990.03;5005494;28;20993;-70
2022/05/17 01:21:10;;;;;;;19.23;9.33;;;;;;;16.23;100.00;101960.25;5003663;28;20463;-69
2022/05/17 01:23:35;;;;;;;12.90;7.73;;;;;;;16.15;100.00;101960.47;5005408;28;20181;-70
2022/05/17 01:26:03;;;;;;;13.90;8.37;;;;;;;16.23;100.00;101968.38;5004913;28;20525;-70
2022/05/17 01:28:35;;;;;;;14.10;8.30;;;;;;;16.14;100.00;101988.56;5006416;28;20685;-70
2022/05/17 01:31:07;;;;;;;18.10;8.90;;;;;;;15.50;100.00;101952.00;5019574;28;20467;-70
2022/05/17 01:33:37;;;;;;;14.50;7.40;;;;;;;15.68;100.00;101966.84;5004792;28;20447;-70
2022/05/17 01:36:05;;;;;;;10.63;6.43;;;;;;;15.69;100.00;101955.84;5004696;28;20452;-70
2022/05/17 01:38:31;;;;;;;13.57;6.83;;;;;;;15.43;100.00;101894.41;5004180;28;20979;-70
2022/05/17 01:40:57;;;;;;;14.70;6.90;;;;;;;15.23;100.00;101901.63;5004470;28;20456;-70
2022/05/17 01:43:23;;;;;;;12.07;6.40;;;;;;;15.91;100.00;101985.41;5006579;28;20828;-70
2022/05/17 01:45:49;;;;;;;12.73;5.60;;;;;;;16.13;100.00;101981.47;5003428;28;20933;-70
2022/05/17 01:48:14;;;;;;;11.53;5.97;;;;;;;16.03;100.00;101946.72;5004655;28;20274;-70
2022/05/17 01:50:39;;;;;;;12.23;5.40;;;;;;;16.12;100.00;101977.13;5004119;28;20690;-70
2022/05/17 01:53:05;;;;;;;13.03;5.73;;;;;;;15.62;100.00;101929.78;5004647;28;20308;-70
2022/05/17 01:55:31;;;;;;;12.53;6.10;;;;;;;15.68;100.00;101977.66;5004291;28;20190;-70
2022/05/17 01:57:57;;;;;;;12.67;4.53;;;;;;;15.37;100.00;101916.84;5004500;28;20209;-70
2022/05/17 02:00:23;;;;;;;14.83;5.17;;;;;;;15.79;100.00;101968.94;5006539;28;20578;-70
2022/05/17 02:02:50;;;;;;;14.53;4.93;;;;;;;15.55;100.00;101938.72;5002506;28;20213;-69
2022/05/17 02:05:18;;;;;;;10.83;5.10;;;;;;;15.58;100.00;101954.53;5006562;28;20489;-69
2022/05/17 02:07:43;;;;;;;11.93;4.30;;;;;;;15.79;100.00;101945.47;5003160;28;20474;-70
2022/05/17 02:10:09;;;;;;;11.40;5.03;;;;;;;15.72;100.00;101960.84;5004505;28;20463;-70
2022/05/17 02:12:35;;;;;;;10.70;4.33;;;;;;;15.61;100.00;101953.28;5003424;28;20189;-70
2022/05/17 02:15:01;;;;;;;11.57;4.60;;;;;;;15.69;100.00;101976.66;5005080;28;20189;-70
2022/05/17 02:17:26;;;;;;;10.83;5.63;;;;;;;15.70;100.00;101972.91;5004230;28;20673;-70
2022/05/17 02:19:51;;;;;;;14.13;4.70;;;;;;;15.52;100.00;101966.16;5004006;28;20551;-69
2022/05/17 02:22:17;;;;;;;12.00;5.30;;;;;;;15.16;100.00;101901.63;5005585;28;20185;-70
2022/05/17 02:24:42;;;;;;;13.27;4.73;;;;;;;15.69;100.00;101982.06;5003898;28;20187;-70
2022/05/17 02:27:07;;;;;;;8.60;3.87;;;;;;;15.69;100.00;101984.75;5006112;28;20288;-70
2022/05/17 02:29:33;;;;;;;11.30;4.37;;;;;;;15.58;100.00;101980.75;5006071;28;20201;-70
2022/05/17 02:31:58;;;;;;;7.60;4.20;;;;;;;15.28;100.00;101910.81;5005231;28;20213;-70
2022/05/17 02:34:24;;;;;;;7.40;4.30;;;;;;;15.93;100.00;101981.47;5004718;28;20225;-70
2022/05/17 02:36:50;;;;;;;12.00;4.47;;;;;;;15.38;100.00;101940.97;5005104;28;20188;-70
2022/05/17 02:39:16;;;;;;;7.73;4.80;;;;;;;15.19;100.00;101906.63;5003657;28;20566;-70
2022/05/17 02:41:41;;;;;;;13.73;4.97;;;;;;;15.66;100.00;101958.94;5003902;28;20181;-70
2022/05/17 02:44:07;;;;;;;9.33;4.30;;;;;;;15.95;100.00;101970.44;5002091;28;20276;-70
2022/05/17 02:46:33;;;;;;;13.03;5.07;;;;;;;15.45;100.00;101886.06;5004996;28;20204;-70
2022/05/17 02:49:01;;;;;;;10.37;5.50;;;;;;;15.04;100.00;101887.88;5004297;28;20193;-71
2022/05/17 02:51:27;;;;;;;13.77;5.00;;;;;;;15.27;100.00;101919.09;5003946;28;20932;-70
2022/05/17 02:53:52;;;;;;;8.33;4.60;;;;;;;15.31;100.00;101983.38;5004356;28;20510;-71
2022/05/17 02:56:18;;;;;;;10.30;5.10;;;;;;;14.62;100.00;101899.72;5002962;28;20185;-71
2022/05/17 02:58:43;;;;;;;10.37;4.90;;;;;;;14.77;100.00;101923.91;5003075;28;20216;-70
2022/05/17 03:01:09;;;;;;;10.97;4.87;;;;;;;15.38;100.00;102005.00;5004212;28;20690;-70
2022/05/17 03:03:39;;;;;;;11.10;4.93;;;;;;;15.32;100.00;101978.78;5006019;28;20192;-71
2022/05/17 03:06:05;;;;;;;17.27;4.70;;;;;;;15.50;100.00;102000.69;5003493;28;20185;-71
2022/05/17 03:08:30;;;;;;;11.50;4.57;;;;;;;14.84;100.00;101905.84;5003637;28;20474;-71
2022/05/17 03:10:55;;;;;;;10.00;4.80;;;;;;;15.49;100.00;101998.19;5003744;28;20459;-70
2022/05/17 03:13:21;;;;;;;15.20;4.60;;;;;;;15.24;100.00;101989.78;5004040;28;20272;-70
2022/05/17 03:15:50;;;;;;;9.40;4.50;;;;;;;14.94;100.00;101909.03;5003887;28;20185;-70
2022/05/17 03:18:15;;;;;;;10.30;3.73;;;;;;;15.15;100.00;101938.59;5003860;28;20585;-71
2022/05/17 03:20:41;;;;;;;14.93;4.43;;;;;;;15.31;100.00;102007.69;5003322;28;20460;-71
2022/05/17 03:23:06;;;;;;;10.30;5.23;;;;;;;14.88;100.00;101897.16;5003835;28;20276;-71
2022/05/17 03:25:32;;;;;;;9.10;4.03;;;;;;;15.11;100.00;101902.22;5004461;28;20189;-71
2022/05/17 03:27:58;;;;;;;8.47;4.20;;;;;;;15.71;100.00;101998.94;5001831;28;20204;-70
2022/05/17 03:30:24;;;;;;;11.90;4.20;;;;;;;15.51;100.00;101951.00;5002927;28;20578;-70
2022/05/17 03:32:49;;;;;;;9.03;4.50;;;;;;;15.18;100.00;101920.31;5002715;28;20439;-70
2022/05/17 03:35:15;;;;;;;13.17;4.20;;;;;;;15.00;100.00;101937.09;5003049;28;20553;-70
2022/05/17 03:37:40;;;;;;;14.00;4.93;;;;;;;15.63;100.00;102015.31;5002109;28;20170;-70
2022/05/17 03:40:07;;;;;;;7.23;3.80;;;;;;;15.51;100.00;102015.88;5001727;28;20696;-70
2022/05/17 03:42:33;;;;;;;16.20;5.27;;;;;;;15.57;100.00;102014.25;5002530;28;20185;-70
2022/05/17 03:44:58;;;;;;;9.33;4.20;;;;;;;15.35;100.00;102022.47;5002534;28;20439;-70
2022/05/17 03:47:24;;;;;;;8.50;4.30;;;;;;;15.57;100.00;102025.88;5001414;28;20235;-70
2022/05/17 03:49:49;;;;;;;12.23;4.17;;;;;;;14.92;100.00;101903.81;5003468;28;20213;-69
2022/05/17 03:52:15;;;;;;;10.30;4.10;;;;;;;15.46;100.00;102023.78;5002145;28;20906;-69
2022/05/17 03:54:40;;;;;;;9.90;4.10;;;;;;;15.40;100.00;102040.81;5003104;28;20571;-70
2022/05/17 03:57:07;;;;;;;8.67;4.17;;;;;;;15.43;100.00;102037.69;5002500;28;20680;-69
2022/05/17 03:59:33;;;;;;;7.33;4.60;;;;;;;15.68;100.00;102024.50;5004888;28;20726;-69
2022/05/17 04:01:58;;;;;;;9.80;4.70;;;;;;;15.25;100.00;102040.13;5002650;28;20439;-70
2022/05/17 04:04:24;;;;;;;6.77;3.87;;;;;;;15.02;100.00;102010.69;5004682;28;20902;-70
2022/05/17 04:06:49;;;;;;;10.53;4.50;;;;;;;15.35;100.00;102048.69;5002072;28;20630;-70
2022/05/17 04:09:15;;;;;;;8.83;3.90;;;;;;;15.06;100.00;102041.66;5003180;28;20958;-70
2022/05/17 04:11:41;;;;;;;11.10;4.20;;;;;;;15.11;100.00;102058.94;5003678;28;20558;-70
2022/05/17 04:14:07;;;;;;;8.10;3.40;;;;;;;15.18;100.00;102063.56;5000887;28;20306;-70
2022/05/17 04:16:37;;;;;;;9.97;4.70;;;;;;;14.83;100.00;102031.97;5005468;28;20193;-70
2022/05/17 04:19:04;;;;;;;11.40;5.30;;;;;;;15.02;100.00;102035.84;5002165;28;20448;-70
2022/05/17 04:21:31;;;;;;;11.87;5.73;;;;;;;15.17;100.00;102057.31;5002342;28;20440;-69
2022/05/17 04:23:56;;;;;;;10.70;5.33;;;;;;;14.28;100.00;101965.28;5002925;28;20932;-70
2022/05/17 04:26:23;;;;;;;8.10;5.33;;;;;;;14.62;100.00;102064.44;5003107;28;20448;-69
2022/05/17 04:28:48;;;;;;;9.13;5.37;;;;;;;14.83;100.00;102036.53;5003417;28;20386;-69
2022/05/17 04:31:14;;;;;;;11.40;5.30;;;;;;;14.93;100.00;102066.75;5003734;28;20503;-70
2022/05/17 04:33:39;;;;;;;9.60;5.70;;;;;;;14.48;100.00;101977.91;5003365;28;20558;-70
2022/05/17 04:36:05;;;;;;;7.70;4.90;;;;;;;14.23;100.00;102020.69;5001691;28;20256;-70
2022/05/17 04:38:30;;;;;;;9.30;5.10;;;;;;;14.39;100.00;101981.78;5001154;28;20185;-69
2022/05/17 04:40:56;;;;;;;12.43;5.50;;;;;;;14.95;100.00;102056.56;5003945;28;20209;-69
2022/05/17 04:43:21;;;;;;;7.90;4.87;;;;;;;14.74;100.00;101992.66;5007350;28;20177;-69
2022/05/17 04:45:46;;;;;;;12.20;5.33;;;;;;;15.19;100.00;102067.91;5008732;28;20189;-69
2022/05/17 04:48:12;;;;;;;9.33;4.53;;;;;;;14.72;100.00;102008.19;5004435;28;20209;-69
2022/05/17 04:50:38;;;;;;;9.87;5.37;;;;;;;14.81;100.00;102069.16;5007693;28;20206;-70
2022/05/17 04:53:04;;;;;;;13.80;5.10;;;;;;;14.91;100.00;102072.34;5004620;28;20182;-69
2022/05/17 04:55:30;;;;;;;7.83;5.03;;;;;;;14.64;100.00;102033.50;5004918;28;20229;-69
2022/05/17 04:57:56;;;;;;;11.43;4.60;;;;;;;15.26;100.00;102085.03;5006070;28;20454;-69
2022/05/17 05:00:24;;;;;;;11.53;4.73;;;;;;;15.00;100.00;101986.56;5006287;28;20460;-69
2022/05/17 05:02:50;;;;;;;12.40;4.33;;;;;;;15.44;100.00;102065.56;5002799;28;20198;-69
2022/05/17 05:05:17;;;;;;;15.77;4.30;;;;;;;15.42;100.00;102052.25;5005484;28;20439;-70
2022/05/17 05:07:42;;;;;;;9.30;4.30;;;;;;;15.15;100.00;102008.88;5005833;28;20467;-69
2022/05/17 05:10:09;;;;;;;11.60;4.80;;;;;;;15.48;100.00;102021.72;5003058;28;20461;-72
2022/05/17 05:12:35;;;;;;;9.53;4.57;;;;;;;15.64;100.00;102039.44;5002610;28;20269;-69
2022/05/17 05:15:01;;;;;;;10.10;4.43;;;;;;;15.62;100.00;102065.84;4999332;28;20468;-71
2022/05/17 05:17:31;;;;;;;13.13;4.87;;;;;;;15.42;100.00;102022.53;5006294;28;20490;-70
2022/05/17 05:19:56;;;;;;;10.03;4.53;;;;;;;15.67;100.00;102059.81;5007502;28;20263;-71
2022/05/17 05:22:21;;;;;;;12.50;4.10;;;;;;;15.44;100.00;102025.84;5008252;28;20432;-71
2022/05/17 05:24:48;;;;;;;9.83;4.23;;;;;;;15.35;100.00;101983.78;5008729;28;20260;-70
2022/05/17 05:27:13;;;;;;;12.93;4.30;;;;;;;15.29;100.00;101977.31;5008382;28;20201;-71
2022/05/17 05:29:39;;;;;;;13.20;4.87;;;;;;;15.93;100.00;102061.81;5007025;28;20448;-70
2022/05/17 05:32:05;;;;;;;11.40;4.40;;;;;;;15.66;100.00;102056.28;5004907;28;20223;-70
2022/05/17 05:34:30;;;;;;;12.57;4.40;;;;;;;15.81;100.00;102038.06;5005278;28;20192;-71
2022/05/17 05:36:55;;;;;;;10.00;3.97;;;;;;;15.63;100.00;102028.81;5004166;28;20892;-71
2022/05/17 05:39:21;;;;;;;15.97;5.20;;;;;;;14.95;100.00;101943.09;5004421;28;20228;-71
2022/05/17 05:41:47;;;;;;;10.40;4.53;;;;;;;15.21;100.00;101966.69;5002860;28;20187;-72
2022/05/17 05:44:13;;;;;;;14.40;5.33;;;;;;;15.88;100.00;102077.81;5002911;28;20452;-72
2022/05/17 05:46:38;;;;;;;10.80;4.40;;;;;;;15.64;100.00;102035.91;5020242;28;20193;-72
2022/05/17 05:49:03;;;;;;;8.30;4.10;;;;;;;15.80;100.00;102046.38;5004708;28;20291;-72
2022/05/17 05:51:29;;;;;;;11.70;4.93;;;;;;;15.93;100.00;102087.00;5002874;28;20192;-70
2022/05/17 05:53:54;;;;;;;10.00;5.13;;;;;;;15.03;100.00;101971.81;5005536;28;20193;-70
2022/05/17 05:56:20;;;;;;;11.77;4.93;;;;;;;15.58;100.00;102057.28;5005512;28;20269;-70
2022/05/17 05:58:45;;;;;;;14.10;4.90;;;;;;;15.64;100.00;102063.75;5006372;28;20583;-71
2022/05/17 06:01:11;;;;;;;13.53;5.57;;;;;;;15.69;100.00;102074.03;5004695;28;20229;-70
2022/05/17 06:03:36;;;;;;;12.97;5.43;;;;;;;15.93;100.00;102095.09;5003555;28;20204;-70
2022/05/17 06:06:03;;;;;;;16.97;5.97;;;;;;;15.83;100.00;102091.97;5014648;28;20189;-70
2022/05/17 06:08:28;;;;;;;15.43;6.00;;;;;;;15.05;100.00;101948.13;5002731;28;20213;-70
2022/05/17 06:10:54;;;;;;;13.70;4.60;;;;;;;15.49;100.00;102014.41;5005041;28;21029;-70
2022/05/17 06:13:20;;;;;;;9.97;4.67;;;;;;;15.45;100.00;102019.41;4997950;28;20668;-71
2022/05/17 06:15:47;;;;;;;7.97;4.70;;;;;;;16.03;100.00;102082.03;5002963;28;20549;-71
2022/05/17 06:18:12;;;;;;;12.67;4.40;;;;;;;16.07;100.00;102093.28;5005115;28;20813;-71
2022/05/17 06:20:39;;;;;;;15.27;5.27;;;;;;;15.95;100.00;102094.91;5000093;28;20466;-71
2022/05/17 06:23:06;;;;;;;9.77;4.57;;;;;;;15.97;100.00;102092.84;5003428;28;20219;-71
2022/05/17 06:25:32;;;;;;;11.93;4.93;;;;;;;15.69;100.00;102050.50;5003973;28;20467;-71
2022/05/17 06:27:59;;;;;;;15.00;5.40;;;;;;;15.93;100.00;102097.81;5003018;28;20463;-71
2022/05/17 06:30:24;;;;;;;13.47;5.37;;;;;;;15.46;100.00;102036.47;5005012;28;20492;-70
2022/05/17 06:32:51;;;;;;;12.47;5.47;;;;;;;15.61;100.00;102064.19;5004708;28;20444;-70
2022/05/17 06:35:17;;;;;;;11.17;4.63;;;;;;;16.02;100.00;102095.75;5005310;28;20216;-70
2022/05/17 06:37:42;;;;;;;15.27;5.37;;;;;;;15.71;100.00;102061.97;5004115;28;20934;-70
2022/05/17 06:40:08;;;;;;;10.67;5.00;;;;;;;15.69;100.00;102039.69;5003709;28;20500;-70
2022/05/17 06:42:34;;;;;;;10.17;4.93;;;;;;;15.92;100.00;102098.84;5004179;28;20558;-70
2022/05/17 06:45:00;;;;;;;18.43;5.50;;;;;;;16.06;100.00;102115.16;5010798;23;20504;-93
2022/05/17 06:47:26;;;;;;;10.93;5.03;;;;;;;16.01;100.00;102086.81;4987705;28;20292;-93
2022/05/17 06:49:52;;;;;;;13.60;5.40;;;;;;;16.12;100.00;102122.44;4985621;28;20189;-91
2022/05/17 06:52:18;;;;;;;11.10;5.20;;;;;;;15.76;100.00;102064.03;4988270;28;20437;-93
2022/05/17 06:54:44;;;;;;;15.40;6.27;;;;;;;16.12;100.00;102130.56;4982657;28;20470;-93
2022/05/17 06:57:12;;;;;;;14.00;5.77;;;;;;;15.97;100.00;102112.63;4988705;28;20512;-94
2022/05/17 06:59:39;;;;;;;14.67;5.50;;;;;;;16.26;100.00;102135.81;4991051;28;20220;-93
2022/05/17 07:02:05;;;;;;;14.87;5.50;;;;;;;16.25;100.00;102125.16;4988184;28;20532;-92
2022/05/17 07:04:32;;;;;;;11.87;5.57;;;;;;;16.31;100.00;102129.75;4988413;28;20465;-93
2022/05/17 07:06:58;;;;;;;15.43;5.50;;;;;;;16.22;100.00;102101.22;4989233;28;20752;-93
2022/05/17 07:09:24;;;;;;;14.07;5.77;;;;;;;16.37;100.00;102125.38;4984371;28;20444;-93
2022/05/17 07:14:40;;;;;;;13.97;5.17;;;;;;;16.25;100.00;102089.97;4984415;28;20818;-93
2022/05/17 07:17:25;;;;;;;11.30;5.17;;;;;;;16.58;100.00;102132.53;4989759;28;20441;-93
2022/05/17 07:19:51;;;;;;;13.97;4.93;;;;;;;16.20;100.00;102068.09;4989708;28;20433;-94
2022/05/17 07:22:17;;;;;;;11.37;5.50;;;;;;;16.64;100.00;102129.81;4990711;28;20436;-93
2022/05/17 07:24:45;;;;;;;12.27;4.63;;;;;;;16.42;100.00;102077.69;4989160;28;20206;-93
2022/05/17 07:27:12;;;;;;;14.37;5.30;;;;;;;16.84;100.00;102127.13;4990164;28;20234;-94
2022/05/17 07:29:37;;;;;;;9.03;5.27;;;;;;;16.70;100.00;102122.72;4990060;28;20922;-94
2022/05/17 07:32:03;;;;;;;16.33;6.17;;;;;;;16.66;100.00;102111.47;4985331;28;20476;-94
2022/05/17 07:34:29;;;;;;;14.07;5.90;;;;;;;16.61;100.00;102113.97;4986126;28;20229;-93
2022/05/17 07:36:54;;;;;;;13.60;5.70;;;;;;;16.40;100.00;102096.06;4982874;28;21228;-94
2022/05/17 07:39:20;;;;;;;11.73;5.70;;;;;;;16.28;100.00;102063.31;4983537;28;20655;-94
2022/05/17 07:41:45;;;;;;;13.47;6.10;;;;;;;16.31;100.00;102072.06;4982501;28;20201;-94
2022/05/17 07:44:11;;;;;;;13.33;5.77;;;;;;;16.33;100.00;102067.28;4988413;28;20185;-94
2022/05/17 07:46:37;;;;;;;16.53;6.60;;;;;;;16.41;100.00;102089.59;4983583;28;20193;-94
2022/05/17 07:49:03;;;;;;;15.33;7.30;;;;;;;16.86;100.00;102157.53;4979682;28;20441;-94
2022/05/17 07:51:28;;;;;;;12.80;6.80;;;;;;;16.84;100.00;102148.81;4980753;28;20822;-92
2022/05/17 07:53:54;;;;;;;16.53;6.80;;;;;;;16.82;100.00;102169.84;4990162;28;20201;-93
2022/05/17 07:56:20;;;;;;;12.47;7.47;;;;;;;16.27;100.00;102085.19;4990929;28;20682;-94
2022/05/17 07:58:45;;;;;;;11.83;5.40;;;;;;;16.80;100.00;102134.00;4981542;28;20440;-94
2022/05/17 08:01:12;;;;;;;12.30;6.10;;;;;;;16.72;100.00;102105.22;4987251;28;20200;-94
2022/05/17 08:03:37;;;;;;;12.27;6.40;;;;;;;17.04;100.00;102151.53;4989890;28;21986;-93
2022/05/17 08:06:03;;;;;;;13.83;6.40;;;;;;;17.08;100.00;102181.75;4990031;28;20508;-92
2022/05/17 08:08:28;;;;;;;13.30;6.40;;;;;;;16.96;100.00;102156.31;4989924;28;20256;-93
2022/05/17 08:10:54;;;;;;;9.93;5.50;;;;;;;16.96;100.00;102150.91;4985439;28;20225;-93
2022/05/17 08:13:23;;;;;;;17.77;6.93;;;;;;;16.65;100.00;102058.31;4984609;28;20185;-93
2022/05/17 08:15:49;;;;;;;16.20;5.80;;;;;;;17.33;100.00;102171.09;4994159;28;20213;-92
2022/05/17 08:18:18;;;;;;;15.13;5.93;;;;;;;17.33;100.00;102166.50;4990557;28;20496;-92
2022/05/17 08:20:44;;;;;;;14.07;5.80;;;;;;;17.25;100.00;102139.59;4991209;28;20483;-92
2022/05/17 08:23:09;;;;;;;12.80;5.73;;;;;;;17.17;100.00;102121.66;4991627;28;20468;-92
2022/05/17 08:28:20;;;;;;;14.23;6.00;;;;;;;17.50;100.00;102160.59;4987012;28;20301;-93
2022/05/17 08:30:47;;;;;;;12.73;5.20;;;;;;;17.56;100.00;102165.16;4992680;28;20524;-92
2022/05/17 08:33:16;;;;;;;13.00;6.23;;;;;;;17.51;100.00;102167.72;4994014;28;20444;-91
2022/05/17 08:35:53;;;;;;;11.77;5.73;;;;;;;17.53;100.00;102168.31;5004646;28;20555;-93
2022/05/17 08:38:27;;;;;;;11.33;6.03;;;;;;;17.71;100.00;102168.47;5005971;28;20433;-93
2022/05/17 08:40:56;;;;;;;17.97;7.33;;;;;;;17.65;100.00;102163.91;4993635;28;21024;-92
2022/05/17 08:43:39;;;;;;;12.67;5.80;;;;;;;17.72;100.00;102172.84;4989480;28;20820;-92
2022/05/17 08:46:23;;;;;;;17.33;6.30;;;;;;;17.81;100.00;102168.88;4999543;28;20552;-93
2022/05/17 08:48:53;;;;;;;14.80;5.40;;;;;;;17.76;100.00;102171.41;4981724;28;20531;-93
2022/05/17 08:51:44;;;;;;;16.77;6.73;;;;;;;17.81;100.00;102174.31;4989466;28;20441;-93
2022/05/17 08:54:15;;;;;;;12.30;5.67;;;;;;;17.88;100.00;102182.44;4984220;28;20448;-93
2022/05/17 08:57:02;;;;;;;15.40;5.67;;;;;;;18.05;100.00;102180.06;4991268;28;20447;-93
2022/05/17 08:59:30;;;;;;;8.77;5.10;;;;;;;17.81;100.00;102168.88;4984624;28;20449;-92
2022/05/17 09:02:00;;;;;;;14.23;6.30;;;;;;;18.01;100.00;102166.09;5005650;28;20445;-93
2022/05/17 09:04:45;;;;;;;11.77;4.80;;;;;;;17.28;100.00;102022.56;4985986;28;20540;-91
2022/05/17 09:07:19;;;;;;;10.70;4.53;;;;;;;18.20;100.00;102174.38;4989669;28;20554;-92
2022/05/17 09:09:44;;;;;;;9.30;4.20;;;;;;;18.46;100.00;102165.22;4989126;28;20456;-91
2022/05/17 09:12:30;;;;;;;8.87;3.90;;;;;;;18.57;100.00;102174.53;4989704;28;20441;-92
2022/05/17 09:14:59;;;;;;;8.73;4.00;;;;;;;18.37;100.00;102180.94;4989822;28;20220;-91
2022/05/17 09:17:26;;;;;;;8.83;3.40;;;;;;;18.26;100.00;102171.59;4988123;28;20450;-87
2022/05/17 09:19:52;;;;;;;7.03;3.30;;;;;;;18.41;100.00;102198.47;4989191;28;20437;-90
2022/05/17 09:22:18;;;;;;;10.70;4.83;;;;;;;18.15;100.00;102188.56;4987895;28;20421;-88
2022/05/17 09:24:54;;;;;;;13.43;4.53;;;;;;;17.75;100.00;102115.44;4988558;28;20535;-89
2022/05/17 09:27:25;;;;;;;12.73;4.00;;;;;;;18.42;100.00;102191.97;4991054;28;20992;-91
2022/05/17 09:29:56;;;;;;;8.73;3.83;;;;;;;18.57;100.00;102190.84;5002145;28;20954;-91
2022/05/17 09:32:29;;;;;;;12.30;4.50;;;;;;;18.59;100.00;102202.31;4990668;28;20450;-91
2022/05/17 09:35:11;;;;;;;9.67;4.70;;;;;;;18.49;100.00;102198.22;4991911;28;20464;-91
2022/05/17 09:37:42;;;;;;;13.47;5.33;;;;;;;18.07;100.00;102158.94;4990361;28;20432;-89
2022/05/17 09:40:13;;;;;;;11.80;5.67;;;;;;;18.22;100.00;102208.38;4987619;28;20564;-92
2022/05/17 09:42:56;;;;;;;8.60;4.60;;;;;;;18.40;100.00;102198.66;4985869;28;20450;-91
2022/05/17 09:45:38;;;;;;;7.50;4.10;;;;;;;17.96;100.00;102117.03;4982670;28;20486;-92
2022/05/17 09:48:07;;;;;;;7.40;4.23;;;;;;;18.51;100.00;102204.28;4985205;28;20747;-92
2022/05/17 09:53:46;;;;;;;12.00;4.97;;;;;;;18.54;100.00;102194.81;4982775;28;20443;-91
2022/05/17 09:56:13;;;;;;;11.07;4.10;;;;;;;18.60;100.00;102196.69;4988504;28;20464;-92
2022/05/17 09:58:41;;;;;;;10.83;4.40;;;;;;;18.60;100.00;102198.56;4988672;28;20433;-91
2022/05/17 10:01:21;;;;;;;8.43;4.80;;;;;;;18.28;100.00;102142.34;4984506;28;20455;-92
2022/05/17 10:04:21;;;;;;;10.63;4.00;;;;;;;18.49;100.00;102157.47;4988418;28;20428;-92
2022/05/17 10:06:53;;;;;;;7.23;4.10;;;;;;;18.25;100.00;102129.22;4992299;28;20433;-90
2022/05/17 10:09:32;;;;;;;12.90;4.70;;;;;;;18.62;100.00;102180.97;4989772;28;20432;-92
2022/05/17 10:12:07;;;;;;;12.20;4.80;;;;;;;18.61;100.00;102184.75;4990134;28;20433;-89
2022/05/17 10:14:40;;;;;;;7.83;4.70;;;;;;;18.60;100.00;102184.97;4990988;28;20475;-92
2022/05/17 10:17:12;;;;;;;12.90;4.30;;;;;;;18.76;100.00;102184.47;4990456;28;20425;-90
2022/05/17 10:20:08;;;;;;;10.17;4.60;;;;;;;18.80;100.00;102169.38;4988304;28;20434;-92
2022/05/17 10:22:36;;;;;;;12.23;4.40;;;;;;;18.88;100.00;102182.69;4991205;28;20484;-90
2022/05/17 10:25:15;;;;;;;11.23;4.83;;;;;;;18.72;100.00;102186.78;4985889;28;20492;-90
2022/05/17 10:27:46;;;;;;;10.77;5.10;;;;;;;18.37;100.00;102094.03;4979174;28;20618;-91
2022/05/17 10:30:16;;;;;;;11.73;4.67;;;;;;;18.95;100.00;102174.50;4991152;28;20524;-90
2022/05/17 10:32:50;;;;;;;8.10;4.03;;;;;;;18.93;100.00;102185.59;4992260;28;20439;-89
2022/05/17 10:35:33;;;;;;;10.53;4.50;;;;;;;18.89;100.00;102164.50;4988688;28;20485;-88
2022/05/17 10:38:18;;;;;;;10.10;4.63;;;;;;;18.93;100.00;102171.16;4992548;28;20523;-91
2022/05/17 10:40:48;;;;;;;8.40;3.43;;;;;;;18.82;100.00;102112.91;4991773;28;20430;-91
2022/05/17 10:43:20;;;;;;;9.17;4.70;;;;;;;19.25;100.00;102176.53;4987184;28;20442;-91
2022/05/17 10:45:55;;;;;;;8.70;3.73;;;;;;;19.24;100.00;102172.13;4991665;28;20474;-90
2022/05/17 10:48:21;;;;;;;9.43;3.80;;;;;;;19.26;100.00;102172.75;4989209;28;20452;-91
2022/05/17 10:51:16;;;;;;;10.10;4.07;;;;;;;19.23;100.00;102163.13;4987020;28;20456;-89
2022/05/17 10:54:26;;;;;;;7.57;3.17;;;;;;;19.38;100.00;102169.06;4984151;28;20181;-85
2022/05/17 10:57:17;;;;;;;11.80;4.80;;;;;;;18.75;100.00;102068.66;4980815;28;20432;-86
2022/05/17 10:59:58;;;;;;;9.50;4.63;;;;;;;19.17;100.00;102155.88;4986306;28;20952;-91
2022/05/17 11:02:26;;;;;;;6.83;3.83;;;;;;;19.44;100.00;102159.19;4996764;28;21032;-85
2022/05/17 11:05:21;;;;;;;8.40;3.97;;;;;;;19.41;100.00;102148.72;4980721;28;24430;-90
2022/05/17 11:08:09;;;;;;;6.40;3.17;;;;;;;19.57;100.00;102148.13;4978755;28;20568;-84
2022/05/17 11:10:47;;;;;;;10.93;4.97;;;;;;;19.70;100.00;102152.63;4980460;28;20531;-88
2022/05/17 11:13:33;;;;;;;10.27;3.67;;;;;;;19.71;100.00;102158.91;4988647;28;20441;-84
2022/05/17 11:16:18;;;;;;;7.80;4.33;;;;;;;19.35;100.00;102145.03;4999196;28;20476;-88
2022/05/17 11:19:04;;;;;;;7.97;4.20;;;;;;;19.55;100.00;102152.97;4981928;28;20519;-92
2022/05/17 11:21:50;;;;;;;7.80;3.40;;;;;;;19.68;100.00;102154.75;4986559;28;21022;-91
2022/05/17 11:24:57;;;;;;;8.00;3.17;;;;;;;19.76;100.00;102154.44;4986453;28;20463;-91
2022/05/17 11:27:55;;;;;;;10.23;4.40;;;;;;;19.51;100.00;102140.06;4978570;28;20500;-91
2022/05/17 11:30:28;;;;;;;7.20;3.30;;;;;;;19.41;100.00;102091.59;4903527;28;20835;-92
2022/05/17 11:33:25;;;;;;;8.57;4.10;;;;;;;19.67;100.00;102142.16;4987788;28;20440;-91